createdAt,value
2023-03-11T00:04:24.524Z,168.27
2023-03-11T00:09:26.448Z,169.48
2023-03-11T00:14:28.510Z,172.23
2023-03-11T00:19:30.355Z,172.53
2023-03-11T00:24:32.295Z,173.20
2023-03-11T00:29:34.154Z,166.85
2023-03-11T00:34:35.972Z,177.75
2023-03-11T00:39:37.840Z,165.20
2023-03-11T00:44:39.791Z,205.07
2023-03-11T00:49:41.702Z,190.80
2023-03-11T00:54:43.643Z,205.33
2023-03-11T00:59:45.728Z,187.40
2023-03-11T01:04:47.717Z,193.07
2023-03-11T01:09:49.599Z,195.10
2023-03-11T01:14:51.493Z,195.90
2023-03-11T01:19:53.326Z,189.93
2023-03-11T01:24:56.416Z,206.67
2023-03-11T01:29:58.798Z,196.03
2023-03-11T01:35:00.690Z,198.80
2023-03-11T01:40:02.523Z,192.27
2023-03-11T01:45:42.709Z,189.70
2023-03-11T01:50:50.573Z,191.10
2023-03-11T01:55:53.055Z,212.27
2023-03-11T02:00:56.551Z,209.67
2023-03-11T02:06:02.641Z,176.30
2023-03-11T02:11:08.673Z,177.77
2023-03-11T02:16:10.918Z,192.70
2023-03-11T02:21:28.428Z,177.40
2023-03-11T02:26:41.453Z,181.50
2023-03-11T02:31:44.025Z,188.53
2023-03-11T02:36:47.478Z,202.20
2023-03-11T02:41:50.481Z,211.73
2023-03-11T02:46:53.505Z,218.07
2023-03-11T02:51:56.974Z,212.47
2023-03-11T02:56:59.031Z,216.03
2023-03-11T03:02:02.693Z,199.13
2023-03-11T03:07:05.471Z,217.37
2023-03-11T03:12:07.736Z,224.97
2023-03-11T03:17:11.164Z,216.53
2023-03-11T03:22:14.274Z,220.30
2023-03-11T03:27:16.993Z,226.40
2023-03-11T03:32:19.031Z,211.70
2023-03-11T03:37:21.248Z,216.30
2023-03-11T03:42:25.251Z,188.80
2023-03-11T03:47:27.594Z,192.23
2023-03-11T03:52:29.634Z,179.40
2023-03-11T03:57:32.076Z,187.03
2023-03-11T04:02:34.086Z,195.57
2023-03-11T04:07:36.536Z,190.83
2023-03-11T04:12:40.881Z,200.20
2023-03-11T04:17:43.819Z,183.83
2023-03-11T04:22:45.983Z,178.53
2023-03-11T04:27:50.122Z,176.93
2023-03-11T04:32:52.747Z,188.20
2023-03-11T04:37:54.710Z,190.50
2023-03-11T04:42:59.406Z,206.50
2023-03-11T04:48:01.474Z,201.23
2023-03-11T04:53:05.828Z,188.47
2023-03-11T04:58:07.849Z,196.70
2023-03-11T05:03:12.119Z,193.13
2023-03-11T05:08:14.852Z,195.73
2023-03-11T05:13:16.882Z,182.37
2023-03-11T05:18:18.881Z,172.77
2023-03-11T05:23:21.503Z,166.90
2023-03-11T05:28:23.430Z,181.63
2023-03-11T05:33:32.328Z,185.77
2023-03-11T05:38:35.937Z,197.65
2023-03-11T05:43:38.064Z,181.00
2023-03-11T05:48:40.252Z,196.67
2023-03-11T05:53:48.230Z,178.23
2023-03-11T05:58:56.870Z,168.47
2023-03-11T06:04:00.393Z,190.50
2023-03-11T06:09:04.081Z,191.13
2023-03-11T06:14:06.250Z,195.60
2023-03-11T06:19:08.389Z,177.17
2023-03-11T06:24:14.207Z,195.63
2023-03-11T06:29:16.211Z,188.77
2023-03-11T06:34:19.779Z,192.73
2023-03-11T06:39:21.808Z,175.23
2023-03-11T06:44:25.633Z,179.27
2023-03-11T06:49:27.649Z,160.20
2023-03-11T06:54:29.853Z,168.70
2023-03-11T06:59:31.885Z,162.87
2023-03-11T07:04:35.215Z,170.77
2023-03-11T07:09:37.247Z,169.47
2023-03-11T07:14:40.859Z,179.30
2023-03-11T07:19:42.826Z,182.40
2023-03-11T07:24:48.993Z,196.67
2023-03-11T07:29:50.823Z,217.23
2023-03-11T07:34:52.834Z,225.07
2023-03-11T07:39:54.926Z,205.27
2023-03-11T07:44:56.774Z,186.07
2023-03-11T07:49:58.721Z,182.65
2023-03-11T07:55:00.619Z,246.20
2023-03-11T08:00:02.644Z,227.60
2023-03-11T08:05:13.789Z,239.67
2023-03-11T08:10:15.678Z,259.87
2023-03-11T08:15:17.627Z,214.20
2023-03-11T08:20:19.490Z,234.90
2023-03-11T08:25:21.363Z,269.97
2023-03-11T08:30:23.462Z,278.63
2023-03-11T08:35:26.939Z,254.83
2023-03-11T08:40:29.199Z,234.95
2023-03-11T08:45:31.167Z,267.97
2023-03-11T08:50:41.249Z,270.17
2023-03-11T08:55:50.921Z,260.13
2023-03-11T09:00:52.939Z,264.38
2023-03-11T09:05:59.848Z,283.20
2023-03-11T09:11:01.864Z,280.38
2023-03-11T09:16:05.943Z,296.63
2023-03-11T09:21:08.211Z,293.37
2023-03-11T09:26:10.216Z,312.43
2023-03-11T09:31:12.202Z,327.60
2023-03-11T09:36:19.085Z,338.90
2023-03-11T09:41:58.456Z,328.30
2023-03-11T09:47:15.772Z,367.67
2023-03-11T09:52:31.265Z,330.90
2023-03-11T09:57:37.053Z,333.85
2023-03-11T10:02:40.254Z,372.67
2023-03-11T10:07:45.699Z,384.02
2023-03-11T10:13:20.031Z,371.85
2023-03-11T10:18:52.571Z,383.63
2023-03-11T10:24:01.687Z,389.48
2023-03-11T10:29:45.212Z,397.33
2023-03-11T10:35:06.139Z,373.23
2023-03-11T10:40:23.699Z,403.70
2023-03-11T10:45:27.271Z,390.10
2023-03-11T10:50:36.513Z,406.45
2023-03-11T10:55:47.113Z,419.73
2023-03-11T11:01:14.588Z,414.87
2023-03-11T11:06:30.227Z,428.90
2023-03-11T11:11:35.243Z,406.27
2023-03-11T11:16:37.604Z,387.33
2023-03-11T11:21:43.491Z,415.03
2023-03-11T11:27:04.754Z,416.00
2023-03-11T11:32:21.960Z,389.50
2023-03-11T11:37:26.906Z,362.20
2023-03-11T11:42:31.357Z,384.55
2023-03-11T11:47:39.517Z,399.98
2023-03-11T11:52:46.287Z,376.13
2023-03-11T11:57:49.008Z,414.48
2023-03-11T12:03:06.433Z,436.35
2023-03-11T12:08:26.976Z,419.05
2023-03-11T12:13:46.730Z,433.80
2023-03-11T12:18:58.915Z,408.10
2023-03-11T12:24:21.010Z,438.48
2023-03-11T12:29:34.425Z,447.90
2023-03-11T12:34:36.398Z,444.20
2023-03-11T12:39:39.465Z,448.70
2023-03-11T12:44:42.013Z,408.00
2023-03-11T12:49:46.763Z,410.23
2023-03-11T12:55:01.371Z,407.98
2023-03-11T13:00:12.445Z,410.15
2023-03-11T13:05:44.942Z,394.63
2023-03-11T13:10:51.558Z,417.75
2023-03-11T13:15:53.705Z,406.65
2023-03-11T13:20:58.352Z,411.45
2023-03-11T13:26:09.468Z,430.40
2023-03-11T13:31:44.278Z,426.90
2023-03-11T13:36:51.434Z,432.10
2023-03-11T13:41:53.810Z,401.70
2023-03-11T13:47:05.776Z,408.52
2023-03-11T13:52:14.118Z,404.58
2023-03-11T13:57:26.808Z,398.60
2023-03-11T14:02:29.162Z,400.00
2023-03-11T14:07:38.537Z,363.92
2023-03-11T14:12:40.411Z,390.25
2023-03-11T14:17:44.101Z,368.58
2023-03-11T14:22:49.464Z,369.20
2023-03-11T14:28:04.549Z,362.15
2023-03-11T14:33:24.821Z,375.17
2023-03-11T14:38:31.611Z,380.73
2023-03-11T14:43:37.898Z,397.85
2023-03-11T14:48:43.845Z,374.77
2023-03-11T14:54:06.214Z,405.90
2023-03-11T14:59:13.981Z,379.17
2023-03-11T15:04:26.905Z,377.05
2023-03-11T15:09:29.829Z,383.25
2023-03-11T15:14:37.002Z,387.00
2023-03-11T15:19:38.992Z,371.83
2023-03-11T15:24:41.190Z,362.25
2023-03-11T15:29:52.689Z,372.25
2023-03-11T15:35:15.634Z,367.23
2023-03-11T15:40:30.086Z,367.90
2023-03-11T15:45:37.764Z,375.58
2023-03-11T15:50:53.272Z,365.45
2023-03-11T15:56:06.534Z,347.58
2023-03-11T16:01:10.012Z,348.50
2023-03-11T16:06:12.738Z,348.95
2023-03-11T16:11:16.095Z,360.67
2023-03-11T16:16:18.558Z,339.77
2023-03-11T16:21:23.712Z,344.05
2023-03-11T16:26:25.637Z,324.75
2023-03-11T16:31:28.360Z,313.92
2023-03-11T16:36:30.484Z,316.52
2023-03-11T16:41:42.557Z,318.92
2023-03-11T16:46:44.707Z,312.52
2023-03-11T16:51:46.899Z,316.95
2023-03-11T16:56:49.105Z,326.45
2023-03-11T17:01:51.393Z,326.67
2023-03-11T17:06:54.558Z,299.13
2023-03-11T17:11:56.984Z,292.75
2023-03-11T17:17:00.115Z,312.63
2023-03-11T17:22:02.566Z,303.13
2023-03-11T17:27:05.556Z,292.13
2023-03-11T17:32:07.863Z,306.35
2023-03-11T17:37:09.734Z,307.50
2023-03-11T17:42:11.627Z,313.50
2023-03-11T17:47:13.596Z,289.77
2023-03-11T17:52:15.755Z,327.00
2023-03-11T17:57:17.961Z,301.38
2023-03-11T18:02:20.461Z,284.40
2023-03-11T18:07:23.751Z,289.58
2023-03-11T18:12:25.737Z,300.23
2023-03-11T18:17:29.008Z,270.38
2023-03-11T18:22:35.554Z,283.98
2023-03-11T18:27:37.999Z,280.57
2023-03-11T18:32:40.385Z,273.67
2023-03-11T18:37:42.326Z,253.68
2023-03-11T18:42:44.209Z,268.90
2023-03-11T18:47:46.223Z,264.55
2023-03-11T18:52:51.915Z,246.90
2023-03-11T18:57:54.148Z,239.88
2023-03-11T19:02:56.022Z,235.50
2023-03-11T19:07:57.914Z,255.65
2023-03-11T19:12:59.800Z,236.18
2023-03-11T19:18:06.906Z,249.52
2023-03-11T19:28:11.362Z,256.48
2023-03-11T19:33:13.276Z,257.23
2023-03-11T19:38:15.144Z,250.20
2023-03-11T19:43:19.313Z,258.67
2023-03-11T19:48:21.291Z,258.50
2023-03-11T19:53:23.216Z,250.52
2023-03-11T19:58:30.100Z,243.00
2023-03-11T20:03:32.481Z,250.68
2023-03-11T20:08:36.826Z,243.93
2023-03-11T20:13:41.109Z,251.43
2023-03-11T20:18:43.106Z,278.25
2023-03-11T20:23:45.073Z,241.70
2023-03-11T20:28:47.418Z,256.00
2023-03-11T20:33:52.145Z,217.65
2023-03-11T20:38:55.360Z,223.70
2023-03-11T20:43:57.760Z,226.70
2023-03-11T20:49:00.744Z,223.73
2023-03-11T20:54:02.722Z,230.73
2023-03-11T20:59:07.102Z,212.15
2023-03-11T21:04:10.569Z,219.05
2023-03-11T21:09:14.667Z,205.05
2023-03-11T21:14:18.621Z,208.43
2023-03-11T21:19:22.468Z,212.18
2023-03-11T21:24:24.416Z,207.35
2023-03-11T21:29:26.316Z,203.30
2023-03-11T21:34:29.351Z,216.77
2023-03-11T21:39:31.258Z,218.23
2023-03-11T21:44:33.196Z,213.27
2023-03-11T21:49:35.427Z,219.20
2023-03-11T21:54:37.269Z,216.20
2023-03-11T21:59:39.308Z,216.05
2023-03-11T22:04:41.652Z,211.63
2023-03-11T22:09:43.775Z,228.20
2023-03-11T22:14:45.734Z,216.23
2023-03-11T22:19:47.825Z,217.25
2023-03-11T22:24:49.652Z,215.10
2023-03-11T22:29:51.605Z,222.52
2023-03-11T22:34:53.513Z,228.70
2023-03-11T22:39:55.360Z,209.07
2023-03-11T22:44:57.218Z,224.85
2023-03-11T22:49:59.261Z,217.88
2023-03-11T22:55:01.111Z,216.80
2023-03-11T23:00:05.220Z,208.57
2023-03-11T23:05:07.406Z,218.43
2023-03-11T23:10:11.648Z,211.15
2023-03-11T23:15:16.982Z,208.43
2023-03-11T23:20:19.028Z,209.32
2023-03-11T23:25:21.089Z,210.88
2023-03-11T23:30:23.139Z,208.75
2023-03-11T23:35:25.089Z,209.48
2023-03-11T23:40:27.012Z,218.25
2023-03-11T23:45:28.844Z,215.65
2023-03-11T23:50:30.712Z,205.60
2023-03-11T23:55:36.357Z,214.93
